createdAt,value
2023-03-12T00:00:00.119Z,12.63
2023-03-12T00:02:27.870Z,12.88
2023-03-12T00:04:56.735Z,11.57
2023-03-12T00:07:24.507Z,11.27
2023-03-12T00:09:52.347Z,11.73
2023-03-12T00:12:20.105Z,11.57
2023-03-12T00:14:47.900Z,12.18
2023-03-12T00:17:17.081Z,11.98
2023-03-12T00:19:45.458Z,10.50
2023-03-12T00:22:13.353Z,11.95
2023-03-12T00:24:41.157Z,11.68
2023-03-12T00:27:08.949Z,24.63
2023-03-12T00:29:37.187Z,12.75
2023-03-12T00:32:05.093Z,12.07
2023-03-12T00:34:34.222Z,12.43
2023-03-12T00:37:02.078Z,12.07
2023-03-12T00:39:29.874Z,11.48
2023-03-12T00:41:57.611Z,11.60
2023-03-12T00:44:25.407Z,12.18
2023-03-12T00:46:53.246Z,11.98
2023-03-12T00:49:20.962Z,12.23
2023-03-12T00:51:50.150Z,11.95
2023-03-12T00:54:18.026Z,11.80
2023-03-12T00:56:46.750Z,11.65
2023-03-12T00:59:15.013Z,12.05
2023-03-12T01:01:43.203Z,11.35
2023-03-12T01:04:11.448Z,11.15
2023-03-12T01:06:39.315Z,12.45
2023-03-12T01:09:10.175Z,11.98
2023-03-12T01:11:38.818Z,12.52
2023-03-12T01:14:08.423Z,11.02
2023-03-12T01:16:36.331Z,10.98
2023-03-12T01:19:05.290Z,10.95
2023-03-12T01:21:33.249Z,11.45
2023-03-12T01:24:01.055Z,10.73
2023-03-12T01:26:30.301Z,9.93
2023-03-12T01:28:58.187Z,10.13
2023-03-12T01:31:26.347Z,10.93
2023-03-12T01:33:54.931Z,10.88
2023-03-12T01:36:24.982Z,10.57
2023-03-12T01:38:53.634Z,10.90
2023-03-12T01:41:22.976Z,12.00
2023-03-12T01:43:52.485Z,10.82
2023-03-12T01:46:28.023Z,10.85
2023-03-12T01:49:00.460Z,9.93
2023-03-12T01:51:31.635Z,10.85
2023-03-12T01:54:03.293Z,8.83
2023-03-12T01:56:35.434Z,10.05
2023-03-12T02:01:35.952Z,8.18
2023-03-12T02:04:03.868Z,8.50
2023-03-12T02:06:38.219Z,8.40
2023-03-12T02:09:08.288Z,8.80
2023-03-12T02:11:36.121Z,7.68
2023-03-12T02:14:05.854Z,7.95
2023-03-12T02:16:34.219Z,7.63
2023-03-12T02:19:03.526Z,7.50
2023-03-12T02:21:35.720Z,7.10
2023-03-12T02:24:13.750Z,6.82
2023-03-12T02:26:43.401Z,6.80
2023-03-12T02:29:11.675Z,7.00
2023-03-12T02:31:44.096Z,6.72
2023-03-12T02:34:11.890Z,6.82
2023-03-12T02:36:39.658Z,6.68
2023-03-12T02:39:07.732Z,6.80
2023-03-12T02:41:38.951Z,6.68
2023-03-12T02:44:11.311Z,6.80
2023-03-12T02:46:41.968Z,6.05
2023-03-12T02:49:11.933Z,5.90
2023-03-12T02:51:40.284Z,6.05
2023-03-12T02:54:08.394Z,5.32
2023-03-12T02:56:36.586Z,5.15
2023-03-12T02:59:04.921Z,5.57
2023-03-12T03:01:34.869Z,4.82
2023-03-12T03:04:03.040Z,4.80
2023-03-12T03:06:31.272Z,4.30
2023-03-12T03:08:59.336Z,4.57
2023-03-12T03:11:27.504Z,4.18
2023-03-12T03:13:56.390Z,4.93
2023-03-12T03:16:25.121Z,4.90
2023-03-12T03:18:54.453Z,4.47
2023-03-12T03:21:22.687Z,4.75
2023-03-12T03:23:51.344Z,5.57
2023-03-12T03:26:21.285Z,5.35
2023-03-12T03:28:49.081Z,5.00
2023-03-12T03:31:17.201Z,5.90
2023-03-12T03:33:45.037Z,5.82
2023-03-12T03:36:15.121Z,6.18
2023-03-12T03:38:47.037Z,6.85
2023-03-12T03:41:15.056Z,6.18
2023-03-12T03:43:42.850Z,6.05
2023-03-12T03:46:13.172Z,6.75
2023-03-12T03:48:41.448Z,6.15
2023-03-12T03:51:11.689Z,6.57
2023-03-12T03:53:41.437Z,6.40
2023-03-12T03:56:10.678Z,6.38
2023-03-12T03:58:39.050Z,5.82
2023-03-12T04:01:07.234Z,5.40
2023-03-12T04:03:35.633Z,4.82
2023-03-12T04:06:05.911Z,4.53
2023-03-12T04:08:35.832Z,5.90
2023-03-12T04:11:09.745Z,4.78
2023-03-12T04:13:37.885Z,4.75
2023-03-12T04:16:06.595Z,5.60
2023-03-12T04:18:36.126Z,5.07
2023-03-12T04:21:05.107Z,5.55
2023-03-12T04:23:33.105Z,6.10
2023-03-12T04:26:03.424Z,5.75
2023-03-12T04:28:32.842Z,5.68
2023-03-12T04:31:03.170Z,5.55
2023-03-12T04:33:33.708Z,5.68
2023-03-12T04:36:01.626Z,5.78
2023-03-12T04:38:30.094Z,5.93
2023-03-12T04:41:01.393Z,5.53
2023-03-12T04:43:30.158Z,5.63
2023-03-12T04:45:59.802Z,5.88
2023-03-12T04:48:28.690Z,6.28
2023-03-12T04:50:56.574Z,5.70
2023-03-12T04:53:25.684Z,5.90
2023-03-12T04:55:54.022Z,4.88
2023-03-12T04:58:22.807Z,4.90
2023-03-12T05:00:51.372Z,5.47
2023-03-12T05:03:20.837Z,4.95
2023-03-12T05:05:48.680Z,4.65
2023-03-12T05:08:17.718Z,5.13
2023-03-12T05:10:46.345Z,5.00
2023-03-12T05:13:15.580Z,5.22
2023-03-12T05:15:43.490Z,4.78
2023-03-12T05:18:11.428Z,4.88
2023-03-12T05:20:40.856Z,4.78
2023-03-12T05:23:08.685Z,4.68
2023-03-12T05:25:40.514Z,4.25
2023-03-12T05:28:08.438Z,4.50
2023-03-12T05:30:36.275Z,5.22
2023-03-12T05:33:04.106Z,4.10
2023-03-12T05:35:32.207Z,5.00
2023-03-12T05:38:01.534Z,4.80
2023-03-12T05:40:29.538Z,4.90
2023-03-12T05:42:57.444Z,5.60
2023-03-12T05:45:25.237Z,4.95
2023-03-12T05:47:53.216Z,5.75
2023-03-12T05:50:21.276Z,5.30
2023-03-12T05:52:49.000Z,5.32
2023-03-12T05:55:18.299Z,4.75
2023-03-12T05:57:46.086Z,5.72
2023-03-12T06:00:16.294Z,5.15
2023-03-12T06:02:44.384Z,5.10
2023-03-12T06:05:12.467Z,5.85
2023-03-12T06:07:40.536Z,5.45
2023-03-12T06:10:09.644Z,5.47
2023-03-12T06:12:38.828Z,6.53
2023-03-12T06:15:07.946Z,6.10
2023-03-12T06:17:35.750Z,6.43
2023-03-12T06:20:03.944Z,5.80
2023-03-12T06:22:31.817Z,6.55
2023-03-12T06:24:59.860Z,6.53
2023-03-12T06:27:27.721Z,7.20
2023-03-12T06:29:57.170Z,6.05
2023-03-12T06:32:26.069Z,6.35
2023-03-12T06:34:53.890Z,6.28
2023-03-12T06:37:21.691Z,7.15
2023-03-12T06:39:49.601Z,5.78
2023-03-12T06:42:18.554Z,10.48
2023-03-12T06:44:46.406Z,5.60
2023-03-12T06:47:17.593Z,4.95
2023-03-12T06:49:45.690Z,5.13
2023-03-12T06:52:13.541Z,3.92
2023-03-12T06:54:41.697Z,4.80
2023-03-12T06:57:09.589Z,4.20
2023-03-12T06:59:37.430Z,4.25
2023-03-12T07:02:05.523Z,3.70
2023-03-12T07:04:34.715Z,3.50
2023-03-12T07:07:02.509Z,3.80
2023-03-12T07:09:30.321Z,4.20
2023-03-12T07:11:58.141Z,4.05
2023-03-12T07:14:26.646Z,3.42
2023-03-12T07:16:54.391Z,3.67
2023-03-12T07:19:22.146Z,3.45
2023-03-12T07:21:51.198Z,3.50
2023-03-12T07:24:19.107Z,3.25
2023-03-12T07:26:47.094Z,3.88
2023-03-12T07:29:14.878Z,4.30
2023-03-12T07:31:42.872Z,3.83
2023-03-12T07:34:10.773Z,3.50
2023-03-12T07:36:38.748Z,3.67
2023-03-12T07:39:08.936Z,3.90
2023-03-12T07:41:38.964Z,4.68
2023-03-12T07:44:06.929Z,4.78
2023-03-12T07:46:34.792Z,4.32
2023-03-12T07:49:02.662Z,4.93
2023-03-12T07:51:30.408Z,4.97
2023-03-12T07:53:58.298Z,4.50
2023-03-12T07:56:27.524Z,5.10
2023-03-12T07:58:55.848Z,4.75
2023-03-12T08:01:25.541Z,4.72
2023-03-12T08:03:53.382Z,5.32
2023-03-12T08:06:22.139Z,5.80
2023-03-12T08:08:49.967Z,5.80
2023-03-12T08:11:18.287Z,5.03
2023-03-12T08:13:47.479Z,5.38
2023-03-12T08:16:15.815Z,4.55
2023-03-12T08:18:44.192Z,4.95
2023-03-12T08:21:12.729Z,4.85
2023-03-12T08:23:42.195Z,4.20
2023-03-12T08:26:10.059Z,4.80
2023-03-12T08:28:37.902Z,5.47
2023-03-12T08:31:07.862Z,5.07
2023-03-12T08:33:35.686Z,4.60
2023-03-12T08:36:03.786Z,4.43
2023-03-12T08:38:31.751Z,4.15
2023-03-12T08:41:00.778Z,3.70
2023-03-12T08:43:29.505Z,4.03
2023-03-12T08:45:58.112Z,4.50
2023-03-12T08:48:28.609Z,4.70
2023-03-12T08:50:56.874Z,4.70
2023-03-12T08:53:24.892Z,5.93
2023-03-12T08:55:54.286Z,4.78
2023-03-12T08:58:22.339Z,4.88
2023-03-12T09:00:50.518Z,5.53
2023-03-12T09:03:19.018Z,5.45
2023-03-12T09:05:49.765Z,4.80
2023-03-12T09:08:18.493Z,5.47
2023-03-12T09:10:50.228Z,5.28
2023-03-12T09:13:18.441Z,5.07
2023-03-12T09:15:46.676Z,4.78
2023-03-12T09:18:14.760Z,4.97
2023-03-12T09:20:44.171Z,4.90
2023-03-12T09:23:13.897Z,5.20
2023-03-12T09:25:41.865Z,5.40
2023-03-12T09:28:13.805Z,5.18
2023-03-12T09:30:43.983Z,5.07
2023-03-12T09:33:14.631Z,5.57
2023-03-12T09:35:42.868Z,5.50
2023-03-12T09:38:15.835Z,4.90
2023-03-12T09:40:48.693Z,5.28
2023-03-12T09:43:22.347Z,4.82
2023-03-12T09:45:51.161Z,5.20
2023-03-12T09:48:27.548Z,4.57
2023-03-12T09:50:56.169Z,4.72
2023-03-12T09:53:32.929Z,4.70
2023-03-12T09:56:09.105Z,5.30
2023-03-12T09:58:39.050Z,4.90
2023-03-12T10:01:20.278Z,5.30
2023-03-12T10:04:02.694Z,4.88
2023-03-12T10:06:35.707Z,5.47
2023-03-12T10:12:33.849Z,3.90
2023-03-12T10:18:51.116Z,3.35
2023-03-12T10:21:26.587Z,2.58
2023-03-12T10:24:31.213Z,2.40
2023-03-12T10:27:01.996Z,1.70
2023-03-12T10:29:32.080Z,2.03
2023-03-12T10:32:03.499Z,2.55
2023-03-12T10:34:37.634Z,3.10
2023-03-12T10:37:15.243Z,2.10
2023-03-12T10:39:45.413Z,1.60
2023-03-12T10:42:19.734Z,1.77
2023-03-12T10:44:50.060Z,1.80
2023-03-12T10:47:28.994Z,1.40
2023-03-12T10:50:12.747Z,1.77
2023-03-12T10:52:40.807Z,1.40
2023-03-12T10:55:21.007Z,1.60
2023-03-12T10:57:49.653Z,1.58
2023-03-12T11:00:23.091Z,1.92
2023-03-12T11:03:00.453Z,1.58
2023-03-12T11:05:31.382Z,2.00
2023-03-12T11:08:01.906Z,1.65
2023-03-12T11:10:45.608Z,1.85
2023-03-12T11:13:29.300Z,2.63
2023-03-12T11:15:58.856Z,2.30
2023-03-12T11:18:47.929Z,2.33
2023-03-12T11:24:23.101Z,3.42
2023-03-12T11:29:43.581Z,2.60
2023-03-12T11:32:18.248Z,2.70
2023-03-12T11:34:47.782Z,1.77
2023-03-12T11:37:22.100Z,2.55
2023-03-12T11:40:08.264Z,1.75
2023-03-12T11:42:52.078Z,2.78
2023-03-12T11:45:28.692Z,1.35
2023-03-12T11:48:07.493Z,1.30
2023-03-12T11:50:47.486Z,1.02
2023-03-12T11:53:33.555Z,1.90
2023-03-12T11:56:17.830Z,1.35
2023-03-12T11:58:59.473Z,1.48
2023-03-12T12:01:39.507Z,1.48
2023-03-12T12:04:36.434Z,1.40
2023-03-12T12:07:17.266Z,1.83
2023-03-12T12:09:52.740Z,1.90
2023-03-12T12:12:36.353Z,1.52
2023-03-12T12:15:15.365Z,1.25
2023-03-12T12:17:56.458Z,1.20
2023-03-12T12:20:37.229Z,1.20
2023-03-12T12:23:16.444Z,1.35
2023-03-12T12:26:00.237Z,1.55
2023-03-12T12:28:49.606Z,1.25
2023-03-12T12:31:29.239Z,1.25
2023-03-12T12:34:10.014Z,1.77
2023-03-12T12:36:39.134Z,1.58
2023-03-12T12:39:15.189Z,1.30
2023-03-12T12:41:49.058Z,3.45
2023-03-12T12:44:19.957Z,2.38
2023-03-12T12:46:53.200Z,1.65
2023-03-12T12:49:24.924Z,1.52
2023-03-12T12:54:33.126Z,1.23
2023-03-12T12:57:09.761Z,1.40
2023-03-12T12:59:42.137Z,1.50
2023-03-12T13:02:19.048Z,1.75
2023-03-12T13:04:47.862Z,1.50
2023-03-12T13:07:35.145Z,3.15
2023-03-12T13:10:09.092Z,2.90
2023-03-12T13:12:48.473Z,1.90
2023-03-12T13:15:40.218Z,2.00
2023-03-12T13:18:23.494Z,1.70
2023-03-12T13:21:16.728Z,1.50
2023-03-12T13:23:58.774Z,1.77
2023-03-12T13:26:31.764Z,1.30
2023-03-12T13:29:14.183Z,1.65
2023-03-12T13:31:44.063Z,1.25
2023-03-12T13:34:34.236Z,1.50
2023-03-12T13:37:03.636Z,1.52
2023-03-12T13:39:33.860Z,1.88
2023-03-12T13:42:03.083Z,1.52
2023-03-12T13:44:38.296Z,1.48
2023-03-12T13:47:18.404Z,2.88
2023-03-12T13:49:55.090Z,1.85
2023-03-12T13:52:25.556Z,1.30
2023-03-12T13:55:01.607Z,1.83
2023-03-12T13:57:40.132Z,1.85
2023-03-12T14:00:16.655Z,1.55
2023-03-12T14:02:49.913Z,1.60
2023-03-12T14:05:21.441Z,1.70
2023-03-12T14:07:58.823Z,2.03
2023-03-12T14:10:48.188Z,1.73
2023-03-12T14:13:32.524Z,1.25
2023-03-12T14:16:12.076Z,1.50
2023-03-12T14:18:43.774Z,1.30
2023-03-12T14:21:17.188Z,1.73
2023-03-12T14:23:50.152Z,1.40
2023-03-12T14:26:21.904Z,1.88
2023-03-12T14:28:56.302Z,1.33
2023-03-12T14:31:26.205Z,1.50
2023-03-12T14:33:59.374Z,1.40
2023-03-12T14:36:33.263Z,1.70
2023-03-12T14:39:13.691Z,1.80
2023-03-12T14:41:46.526Z,1.98
2023-03-12T14:44:23.427Z,1.83
2023-03-12T14:46:57.300Z,1.60
2023-03-12T14:49:25.148Z,1.65
2023-03-12T14:51:55.420Z,1.92
2023-03-12T14:54:25.803Z,1.48
2023-03-12T14:56:53.931Z,1.42
2023-03-12T14:59:25.359Z,1.30
2023-03-12T15:02:00.248Z,1.10
2023-03-12T15:04:29.841Z,1.05
2023-03-12T15:07:04.348Z,0.98
2023-03-12T15:09:36.069Z,1.17
2023-03-12T15:12:06.848Z,1.02
2023-03-12T15:14:39.259Z,1.05
2023-03-12T15:17:08.034Z,1.52
2023-03-12T15:19:39.594Z,1.20
2023-03-12T15:22:14.840Z,1.13
2023-03-12T15:24:45.232Z,1.05
2023-03-12T15:27:32.990Z,0.85
2023-03-12T15:30:02.690Z,1.00
2023-03-12T15:32:32.071Z,0.95
2023-03-12T15:35:00.876Z,1.83
2023-03-12T15:37:37.921Z,0.90
2023-03-12T15:40:17.950Z,1.30
2023-03-12T15:42:48.132Z,1.90
2023-03-12T15:45:22.419Z,2.50
2023-03-12T15:47:52.392Z,2.50
2023-03-12T15:50:23.386Z,3.28
2023-03-12T15:53:06.004Z,1.77
2023-03-12T15:55:35.279Z,1.73
2023-03-12T15:58:03.603Z,1.17
2023-03-12T16:00:32.758Z,1.25
2023-03-12T16:03:02.020Z,1.20
2023-03-12T16:05:33.386Z,1.13
2023-03-12T16:08:04.213Z,1.40
2023-03-12T16:10:37.206Z,1.73
2023-03-12T16:13:06.013Z,1.85
2023-03-12T16:15:37.606Z,1.40
2023-03-12T16:18:05.742Z,1.25
2023-03-12T16:20:33.641Z,1.70
2023-03-12T16:23:02.777Z,4.88
2023-03-12T16:25:30.927Z,2.55
2023-03-12T16:28:01.784Z,1.55
2023-03-12T16:30:31.264Z,1.65
2023-03-12T16:33:00.458Z,2.00
2023-03-12T16:35:31.313Z,1.65
2023-03-12T16:38:01.983Z,1.20
2023-03-12T16:40:34.211Z,1.55
2023-03-12T16:43:04.601Z,1.17
2023-03-12T16:45:34.498Z,1.65
2023-03-12T16:48:04.373Z,1.70
2023-03-12T16:50:32.703Z,2.03
2023-03-12T16:53:00.908Z,1.85
2023-03-12T16:55:35.820Z,1.45
2023-03-12T16:58:05.279Z,1.90
2023-03-12T17:00:35.537Z,1.58
2023-03-12T17:03:03.407Z,1.50
2023-03-12T17:05:31.668Z,1.40
2023-03-12T17:08:00.146Z,1.70
2023-03-12T17:10:28.122Z,1.63
2023-03-12T17:12:57.577Z,1.35
2023-03-12T17:15:27.384Z,1.58
2023-03-12T17:17:56.797Z,1.08
2023-03-12T17:20:25.821Z,1.55
2023-03-12T17:22:53.756Z,1.52
2023-03-12T17:25:25.066Z,1.30
2023-03-12T17:27:53.340Z,1.60
2023-03-12T17:30:22.572Z,1.70
2023-03-12T17:32:51.190Z,1.50
2023-03-12T17:35:19.737Z,3.25
2023-03-12T17:37:48.424Z,1.80
2023-03-12T17:40:16.850Z,1.88
2023-03-12T17:42:44.644Z,2.55
2023-03-12T17:45:12.696Z,1.48
2023-03-12T17:47:41.893Z,1.50
2023-03-12T17:50:11.405Z,1.48
2023-03-12T17:52:39.376Z,1.20
2023-03-12T17:55:11.071Z,1.15
2023-03-12T18:00:11.562Z,2.83
2023-03-12T18:02:42.051Z,1.85
2023-03-12T18:05:12.301Z,1.40
2023-03-12T18:07:40.630Z,1.20
2023-03-12T18:10:11.063Z,1.48
2023-03-12T18:12:40.160Z,2.97
2023-03-12T18:15:09.850Z,2.63
2023-03-12T18:17:37.804Z,3.42
2023-03-12T18:20:09.929Z,1.55
2023-03-12T18:25:08.595Z,2.05
2023-03-12T18:27:36.432Z,1.52
2023-03-12T18:30:05.621Z,1.52
2023-03-12T18:32:35.009Z,3.65
2023-03-12T18:35:05.991Z,2.30
2023-03-12T18:37:35.505Z,2.58
2023-03-12T18:40:05.352Z,3.38
2023-03-12T18:42:33.229Z,2.90
2023-03-12T18:45:01.191Z,1.70
2023-03-12T18:47:28.988Z,2.50
2023-03-12T18:49:57.001Z,2.47
2023-03-12T18:52:25.243Z,1.40
2023-03-12T18:54:54.335Z,1.15
2023-03-12T18:57:22.181Z,1.30
2023-03-12T18:59:50.190Z,2.33
2023-03-12T19:02:18.108Z,1.50
2023-03-12T19:04:45.946Z,1.33
2023-03-12T19:07:14.134Z,1.33
2023-03-12T19:09:42.028Z,1.10
2023-03-12T19:12:11.565Z,1.80
2023-03-12T19:14:39.450Z,1.40
2023-03-12T19:17:07.298Z,1.30
2023-03-12T19:19:35.074Z,1.50
2023-03-12T19:22:03.612Z,1.50
2023-03-12T19:24:31.463Z,1.77
2023-03-12T19:26:59.590Z,2.22
2023-03-12T19:29:29.016Z,2.50
2023-03-12T19:31:56.838Z,1.40
2023-03-12T19:34:24.673Z,1.30
2023-03-12T19:36:52.556Z,1.42
2023-03-12T19:39:21.602Z,1.77
2023-03-12T19:41:49.678Z,1.52
2023-03-12T19:44:17.435Z,1.63
2023-03-12T19:46:46.732Z,1.60
2023-03-12T19:49:14.508Z,1.75
2023-03-12T19:51:42.356Z,1.60
2023-03-12T19:54:10.207Z,3.05
2023-03-12T19:56:37.993Z,1.75
2023-03-12T19:59:05.815Z,2.75
2023-03-12T20:01:33.775Z,1.20
2023-03-12T20:04:07.851Z,1.35
2023-03-12T20:06:36.023Z,1.10
2023-03-12T20:09:05.434Z,1.27
2023-03-12T20:11:33.576Z,1.35
2023-03-12T20:14:01.368Z,1.10
2023-03-12T20:16:29.248Z,1.20
2023-03-12T20:18:57.136Z,2.13
2023-03-12T20:21:27.981Z,1.80
2023-03-12T20:23:57.174Z,1.45
2023-03-12T20:26:25.304Z,1.50
2023-03-12T20:28:53.100Z,1.40
2023-03-12T20:31:20.955Z,1.50
2023-03-12T20:33:48.844Z,1.50
2023-03-12T20:36:16.707Z,1.02
2023-03-12T20:38:48.773Z,1.45
2023-03-12T20:43:46.188Z,1.35
2023-03-12T20:46:14.569Z,1.40
2023-03-12T20:48:42.514Z,1.40
2023-03-12T20:51:10.498Z,1.20
2023-03-12T20:53:38.339Z,1.50
2023-03-12T20:56:08.465Z,1.67
2023-03-12T20:58:36.248Z,1.40
2023-03-12T21:01:05.796Z,1.50
2023-03-12T21:03:34.620Z,2.33
2023-03-12T21:06:04.058Z,2.13
2023-03-12T21:08:32.959Z,2.58
2023-03-12T21:11:00.948Z,2.38
2023-03-12T21:13:30.913Z,2.58
2023-03-12T21:15:58.719Z,2.10
2023-03-12T21:18:26.797Z,2.55
2023-03-12T21:20:54.704Z,2.53
2023-03-12T21:23:22.667Z,2.90
2023-03-12T21:25:59.210Z,2.92
2023-03-12T21:28:27.503Z,2.35
2023-03-12T21:30:56.838Z,2.83
2023-03-12T21:33:24.722Z,2.28
2023-03-12T21:35:52.676Z,2.92
2023-03-12T21:38:20.595Z,3.22
2023-03-12T21:40:48.795Z,2.45
2023-03-12T21:43:16.646Z,2.50
2023-03-12T21:45:47.337Z,3.20
2023-03-12T21:48:16.540Z,2.50
2023-03-12T21:50:44.444Z,2.80
2023-03-12T21:53:23.305Z,2.25
2023-03-12T21:55:56.627Z,1.85
2023-03-12T21:58:25.358Z,2.33
2023-03-12T22:00:53.749Z,2.50
2023-03-12T22:03:23.172Z,2.00
2023-03-12T22:05:54.239Z,2.75
2023-03-12T22:08:22.094Z,2.38
2023-03-12T22:10:50.224Z,2.47
2023-03-12T22:13:18.149Z,2.25
2023-03-12T22:15:47.663Z,2.10
2023-03-12T22:18:15.600Z,2.58
2023-03-12T22:20:51.873Z,2.55
2023-03-12T22:23:19.741Z,2.67
2023-03-12T22:25:47.663Z,3.08
2023-03-12T22:28:15.722Z,2.22
2023-03-12T22:30:43.826Z,2.38
2023-03-12T22:33:12.110Z,2.50
2023-03-12T22:35:46.033Z,2.47
2023-03-12T22:38:14.318Z,2.38
2023-03-12T22:40:42.848Z,2.45
2023-03-12T22:43:10.819Z,1.77
2023-03-12T22:45:38.572Z,1.77
2023-03-12T22:48:06.946Z,2.03
2023-03-12T22:50:34.996Z,2.28
2023-03-12T22:53:04.554Z,1.90
2023-03-12T22:55:32.336Z,2.08
2023-03-12T22:58:00.293Z,1.73
2023-03-12T23:00:27.998Z,3.47
2023-03-12T23:02:56.019Z,3.17
2023-03-12T23:05:23.764Z,3.00
2023-03-12T23:07:51.611Z,2.97
2023-03-12T23:10:21.169Z,2.55
2023-03-12T23:12:48.969Z,3.15
2023-03-12T23:15:16.885Z,2.63
2023-03-12T23:17:44.625Z,2.55
2023-03-12T23:20:13.863Z,3.15
2023-03-12T23:22:41.681Z,3.63
2023-03-12T23:25:10.309Z,2.72
2023-03-12T23:27:39.452Z,2.20
2023-03-12T23:30:08.499Z,1.63
2023-03-12T23:32:36.385Z,2.13
2023-03-12T23:35:04.191Z,1.40
2023-03-12T23:37:32.057Z,1.30
2023-03-12T23:39:59.829Z,2.00
2023-03-12T23:42:28.436Z,2.00
2023-03-12T23:44:57.630Z,1.20
2023-03-12T23:47:25.522Z,1.48
2023-03-12T23:49:53.344Z,1.80
2023-03-12T23:52:21.053Z,1.70
2023-03-12T23:54:49.011Z,1.77
2023-03-12T23:57:16.813Z,1.92
2023-03-12T23:59:44.730Z,1.20
